world map with VLC marked

VLC - Airport

This information may not be accurate or current and is not valid for navigation or flight planning. No warranty of fitness for any purpose is made or implied.

flag of Valencianaflag of Spain

Donate via PayPal

Additional information is available on the NEW Great Circle Mapper

Location
City:  Valencia, Valenciana, Spain
Name:Manises
ICAO / IATA:LEVC / VLC

Details
Type:Airport (Aerodrome, Airfield)
Use:Public/Civil
Latitude:39°29'22"N (39.489314)
Longitude:0°28'54"W (-0.481624)
Datum:WGS 1984
Elevation:225 ft (69 m)
Runways:2
Longest:8858 × 148 ft (2700 × 45 m)

Time
Timezone:UTC+1 (DST+4)
Local Time:

Weather
METAR:LEVC  041400Z 19006KT 150V230 CAVOK 17/M07 Q1025 NOSIG
TAF:LEVC  041100Z 0412/0512 27006KT 9999 FEW030 TX18/0413Z TN05/0506Z TEMPO 0412/0418 18005KT

Related Locations
Nearby:
Farthest:GIS: 12337 mi / 19855 km
Gisborne, GIS, NZ

Find:

   beyond  
but within

Other Information
Maps:
Sources:

  


 


Great Circle Mapper   Great Circle Mapper
Great Circle Mapper FAQ   Great Circle Mapper FAQ
  Karl's Home Page
KLSē   KLSē Home
   GC on Facebook
Airlines of the World   Airlines of the World
Donate via PayPal


Copyright © 2004-2019, Karl L. Swartz. All rights reserved.
All trademarks mentioned herein belong to their respective owners.

Please see credits for attribution and copyright information.

Karl Swartz <karl@kls2.com>
  Powered by FreeBSD
Valid HTML 4.01!
Labeled with ICRA
hCard Microformat
Geo Microformat